CDG8839 ZSJN-ZPPP
Flight info
| Callsign | CDG8839 |
|---|---|
| Flight time | 4h 8m |
| Altitude | 32100 |
| Route | EXUVU5T EXUVU W4 LIMGI W152 TAREX W278 IDBUM/K0859S1040 W278 AVDIG W666 INVOG/K0857S1010 W30 URGUS/K0865S1040 W30 MEBNA MEB3L |
| Aircraft | B738/M-SDFGHIRWY/LB1 |
Departure
| Time | 2026-04-10 15:10 |
|---|---|
| Airport | Jinan Yaoqiang International Airport (ZSJN) |
Arrival
| Time | 2026-04-10 19:18 |
|---|---|
| Airport | Kunming Changshui International Airport (ZPPP) |
| Time | Latitude | Longitude | Altitude | Speed | Heading |
|---|---|---|---|---|---|
| 2026-04-10 14:35 | 36.84654 | 117.20982 | 83 ft | 0 kts | 23° |
| 2026-04-10 14:50 | 36.84645 | 117.20977 | 83 ft | 2 kts | 23° |
| 2026-04-10 14:51 | 36.84632 | 117.20970 | 83 ft | 2 kts | 23° |
| 2026-04-10 14:51 | 36.84618 | 117.20960 | 83 ft | 2 kts | 47° |
| 2026-04-10 14:51 | 36.84610 | 117.20945 | 83 ft | 2 kts | 67° |
| 2026-04-10 14:51 | 36.84606 | 117.20927 | 83 ft | 2 kts | 89° |
| 2026-04-10 14:52 | 36.84609 | 117.20909 | 83 ft | 1 kts | 110° |
| 2026-04-10 14:52 | 36.84611 | 117.20901 | 83 ft | 1 kts | 116° |
| 2026-04-10 14:52 | 36.84612 | 117.20900 | 83 ft | 0 kts | 115° |
| 2026-04-10 15:02 | 36.84605 | 117.20919 | 83 ft | 6 kts | 115° |
| 2026-04-10 15:02 | 36.84576 | 117.20996 | 83 ft | 11 kts | 111° |
| 2026-04-10 15:03 | 36.84568 | 117.21097 | 83 ft | 11 kts | 90° |
| 2026-04-10 15:03 | 36.84568 | 117.21217 | 83 ft | 16 kts | 90° |
| 2026-04-10 15:03 | 36.84573 | 117.21348 | 83 ft | 10 kts | 64° |
| 2026-04-10 15:03 | 36.84633 | 117.21375 | 83 ft | 9 kts | 0° |
| 2026-04-10 15:04 | 36.84713 | 117.21375 | 83 ft | 14 kts | 360° |
| 2026-04-10 15:04 | 36.84828 | 117.21374 | 83 ft | 18 kts | 360° |
| 2026-04-10 15:04 | 36.84977 | 117.21374 | 83 ft | 24 kts | 360° |
| 2026-04-10 15:04 | 36.85162 | 117.21375 | 83 ft | 27 kts | 360° |
| 2026-04-10 15:05 | 36.85527 | 117.21375 | 83 ft | 25 kts | 360° |
| 2026-04-10 15:05 | 36.85699 | 117.21375 | 83 ft | 25 kts | 0° |
| 2026-04-10 15:05 | 36.85880 | 117.21374 | 83 ft | 24 kts | 360° |
| 2026-04-10 15:06 | 36.86058 | 117.21374 | 83 ft | 25 kts | 359° |
| 2026-04-10 15:06 | 36.86237 | 117.21374 | 83 ft | 27 kts | 359° |
| 2026-04-10 15:06 | 36.86433 | 117.21375 | 83 ft | 28 kts | 0° |
| 2026-04-10 15:06 | 36.86629 | 117.21375 | 83 ft | 26 kts | 359° |
| 2026-04-10 15:07 | 36.86812 | 117.21375 | 83 ft | 27 kts | 360° |
| 2026-04-10 15:07 | 36.87009 | 117.21375 | 83 ft | 29 kts | 359° |
| 2026-04-10 15:07 | 36.87196 | 117.21374 | 83 ft | 24 kts | 0° |
| 2026-04-10 15:07 | 36.87319 | 117.21381 | 83 ft | 11 kts | 27° |
| 2026-04-10 15:08 | 36.87342 | 117.21463 | 83 ft | 11 kts | 90° |
| 2026-04-10 15:08 | 36.87341 | 117.21574 | 83 ft | 8 kts | 101° |
| 2026-04-10 15:08 | 36.87290 | 117.21599 | 83 ft | 7 kts | 180° |
| 2026-04-10 15:08 | 36.87248 | 117.21599 | 83 ft | 9 kts | 179° |
| 2026-04-10 15:09 | 36.86969 | 117.21599 | 83 ft | 73 kts | 180° |
| 2026-04-10 15:09 | 36.86251 | 117.21600 | 83 ft | 131 kts | 180° |
| 2026-04-10 15:09 | 36.85158 | 117.21600 | 88 ft | 178 kts | 181° |
| 2026-04-10 15:09 | 36.83882 | 117.21612 | 577 ft | 187 kts | 181° |
| 2026-04-10 15:10 | 36.82623 | 117.21639 | 1405 ft | 181 kts | 183° |
| 2026-04-10 15:10 | 36.81384 | 117.21649 | 2082 ft | 176 kts | 191° |
| 2026-04-10 15:10 | 36.80271 | 117.21053 | 2383 ft | 181 kts | 227° |
| 2026-04-10 15:10 | 36.79588 | 117.19772 | 2895 ft | 180 kts | 249° |
| 2026-04-10 15:11 | 36.79284 | 117.18240 | 3315 ft | 187 kts | 266° |
| 2026-04-10 15:11 | 36.79481 | 117.16554 | 3562 ft | 206 kts | 287° |
| 2026-04-10 15:11 | 36.79955 | 117.14842 | 3947 ft | 217 kts | 288° |
| 2026-04-10 15:11 | 36.80434 | 117.13000 | 4334 ft | 229 kts | 287° |
| 2026-04-10 15:12 | 36.80898 | 117.11076 | 4888 ft | 233 kts | 288° |
| 2026-04-10 15:12 | 36.81347 | 117.09160 | 5454 ft | 236 kts | 289° |
| 2026-04-10 15:12 | 36.81813 | 117.07175 | 6013 ft | 240 kts | 289° |
| 2026-04-10 15:12 | 36.82293 | 117.05209 | 6638 ft | 239 kts | 294° |
| 2026-04-10 15:13 | 36.83062 | 117.03397 | 7178 ft | 238 kts | 314° |
| 2026-04-10 15:13 | 36.84382 | 117.02123 | 7560 ft | 246 kts | 332° |
| 2026-04-10 15:13 | 36.85938 | 117.01102 | 7978 ft | 256 kts | 333° |
| 2026-04-10 15:13 | 36.87521 | 117.00066 | 8591 ft | 259 kts | 333° |
| 2026-04-10 15:14 | 36.89102 | 116.98978 | 9257 ft | 261 kts | 332° |
| 2026-04-10 15:14 | 36.90676 | 116.97866 | 9909 ft | 263 kts | 332° |
| 2026-04-10 15:14 | 36.92263 | 116.96736 | 10421 ft | 270 kts | 331° |
| 2026-04-10 15:14 | 36.93955 | 116.95532 | 10753 ft | 284 kts | 331° |
| 2026-04-10 15:15 | 36.95713 | 116.94282 | 11035 ft | 300 kts | 331° |
| 2026-04-10 15:15 | 36.97559 | 116.92969 | 11403 ft | 312 kts | 330° |
| 2026-04-10 15:15 | 36.99482 | 116.91601 | 11938 ft | 319 kts | 330° |
| 2026-04-10 15:15 | 37.01407 | 116.90231 | 12631 ft | 320 kts | 330° |
| 2026-04-10 15:16 | 37.03344 | 116.88851 | 13300 ft | 322 kts | 329° |
| 2026-04-10 15:16 | 37.05300 | 116.87456 | 13942 ft | 326 kts | 329° |
| 2026-04-10 15:16 | 37.07210 | 116.85960 | 14627 ft | 327 kts | 323° |
| 2026-04-10 15:16 | 37.08853 | 116.84010 | 15262 ft | 331 kts | 309° |
| 2026-04-10 15:17 | 37.10025 | 116.81545 | 15910 ft | 335 kts | 296° |
| 2026-04-10 15:17 | 37.10768 | 116.78745 | 16548 ft | 341 kts | 286° |
| 2026-04-10 15:17 | 37.11076 | 116.75810 | 17133 ft | 349 kts | 274° |
| 2026-04-10 15:17 | 37.10716 | 116.72800 | 17810 ft | 357 kts | 258° |
| 2026-04-10 15:18 | 37.09853 | 116.69858 | 18348 ft | 365 kts | 253° |
| 2026-04-10 15:18 | 37.08854 | 116.66920 | 19038 ft | 365 kts | 252° |
| 2026-04-10 15:18 | 37.07836 | 116.64017 | 19605 ft | 369 kts | 252° |
| 2026-04-10 15:18 | 37.06805 | 116.61073 | 20125 ft | 373 kts | 252° |
| 2026-04-10 15:19 | 37.05774 | 116.58103 | 20702 ft | 374 kts | 252° |
| 2026-04-10 15:19 | 37.04741 | 116.55110 | 21215 ft | 378 kts | 252° |
| 2026-04-10 15:19 | 37.03702 | 116.52084 | 21772 ft | 380 kts | 252° |
| 2026-04-10 15:19 | 37.02661 | 116.49049 | 22299 ft | 382 kts | 252° |
| 2026-04-10 15:20 | 37.01617 | 116.46008 | 22858 ft | 383 kts | 253° |
| 2026-04-10 15:20 | 37.00568 | 116.42947 | 23339 ft | 386 kts | 253° |
| 2026-04-10 15:20 | 36.99515 | 116.39874 | 23870 ft | 387 kts | 252° |
| 2026-04-10 15:20 | 36.98456 | 116.36787 | 24259 ft | 391 kts | 252° |
| 2026-04-10 15:21 | 36.97379 | 116.33654 | 24827 ft | 390 kts | 252° |
| 2026-04-10 15:21 | 36.96303 | 116.30528 | 25285 ft | 393 kts | 252° |
| 2026-04-10 15:21 | 36.95228 | 116.27408 | 25775 ft | 394 kts | 252° |
| 2026-04-10 15:21 | 36.94141 | 116.24252 | 26108 ft | 399 kts | 252° |
| 2026-04-10 15:22 | 36.93045 | 116.21074 | 26620 ft | 398 kts | 252° |
| 2026-04-10 15:22 | 36.91951 | 116.17914 | 27108 ft | 399 kts | 252° |
| 2026-04-10 15:22 | 36.90841 | 116.14701 | 27413 ft | 403 kts | 252° |
| 2026-04-10 15:22 | 36.89742 | 116.11526 | 27943 ft | 402 kts | 252° |
| 2026-04-10 15:23 | 36.88631 | 116.08321 | 28373 ft | 403 kts | 252° |
| 2026-04-10 15:23 | 36.87517 | 116.05112 | 28665 ft | 406 kts | 252° |
| 2026-04-10 15:23 | 36.86398 | 116.01887 | 29130 ft | 405 kts | 252° |
| 2026-04-10 15:23 | 36.85280 | 115.98674 | 29486 ft | 407 kts | 252° |
| 2026-04-10 15:24 | 36.84140 | 115.95394 | 29844 ft | 408 kts | 252° |
| 2026-04-10 15:24 | 36.83026 | 115.92205 | 30594 ft | 398 kts | 252° |
| 2026-04-10 15:24 | 36.81940 | 115.89114 | 31476 ft | 386 kts | 252° |
| 2026-04-10 15:24 | 36.80885 | 115.86106 | 31894 ft | 382 kts | 252° |
| 2026-04-10 15:25 | 36.78767 | 115.80039 | 31989 ft | 380 kts | 252° |
| 2026-04-10 15:25 | 36.76656 | 115.74004 | 31985 ft | 378 kts | 252° |
| 2026-04-10 15:26 | 36.74550 | 115.68001 | 31990 ft | 379 kts | 252° |
| 2026-04-10 15:26 | 36.72426 | 115.61960 | 31989 ft | 380 kts | 252° |
| 2026-04-10 15:27 | 36.70305 | 115.55949 | 31984 ft | 380 kts | 252° |
| 2026-04-10 15:27 | 36.68173 | 115.49920 | 31983 ft | 379 kts | 252° |
| 2026-04-10 15:28 | 36.66056 | 115.43945 | 31985 ft | 380 kts | 252° |
| 2026-04-10 15:28 | 36.63921 | 115.37929 | 31983 ft | 380 kts | 252° |
| 2026-04-10 15:29 | 36.61776 | 115.31892 | 31984 ft | 381 kts | 251° |
| 2026-04-10 15:29 | 36.59636 | 115.25883 | 31977 ft | 381 kts | 251° |
| 2026-04-10 15:30 | 36.57492 | 115.19880 | 31977 ft | 380 kts | 250° |
| 2026-04-10 15:30 | 36.54928 | 115.14078 | 31971 ft | 390 kts | 240° |
| 2026-04-10 15:31 | 36.51239 | 115.09003 | 31975 ft | 398 kts | 232° |
| 2026-04-10 15:31 | 36.47221 | 115.04318 | 31977 ft | 399 kts | 230° |
| 2026-04-10 15:32 | 36.43128 | 114.99612 | 31976 ft | 400 kts | 230° |
| 2026-04-10 15:32 | 36.39091 | 114.94881 | 31979 ft | 399 kts | 232° |
| 2026-04-10 15:33 | 36.35516 | 114.89740 | 31981 ft | 391 kts | 241° |
| 2026-04-10 15:33 | 36.32621 | 114.84077 | 31980 ft | 387 kts | 245° |
| 2026-04-10 15:34 | 36.29936 | 114.78322 | 31981 ft | 387 kts | 245° |
| 2026-04-10 15:34 | 36.27248 | 114.72553 | 31983 ft | 388 kts | 245° |
| 2026-04-10 15:35 | 36.24475 | 114.66810 | 31983 ft | 389 kts | 244° |
| 2026-04-10 15:35 | 36.21669 | 114.61091 | 31986 ft | 389 kts | 244° |
| 2026-04-10 15:36 | 36.18863 | 114.55381 | 31987 ft | 390 kts | 244° |
| 2026-04-10 15:36 | 36.16059 | 114.49672 | 31995 ft | 391 kts | 244° |
| 2026-04-10 15:37 | 36.13224 | 114.43916 | 32004 ft | 391 kts | 244° |
| 2026-04-10 15:37 | 36.10397 | 114.38174 | 32008 ft | 392 kts | 244° |
| 2026-04-10 15:38 | 36.07559 | 114.32424 | 32013 ft | 394 kts | 243° |
| 2026-04-10 15:38 | 36.04708 | 114.26659 | 32017 ft | 394 kts | 243° |
| 2026-04-10 15:39 | 36.01860 | 114.20912 | 32021 ft | 392 kts | 243° |
| 2026-04-10 15:39 | 35.99012 | 114.15170 | 32025 ft | 393 kts | 243° |
| 2026-04-10 15:40 | 35.96155 | 114.09417 | 32025 ft | 395 kts | 243° |
| 2026-04-10 15:40 | 35.93287 | 114.03651 | 32043 ft | 393 kts | 242° |
| 2026-04-10 15:41 | 35.90435 | 113.97932 | 32046 ft | 393 kts | 243° |
| 2026-04-10 15:41 | 35.87557 | 113.92164 | 32062 ft | 395 kts | 243° |
| 2026-04-10 15:42 | 35.84683 | 113.86420 | 32053 ft | 394 kts | 242° |
| 2026-04-10 15:42 | 35.81815 | 113.80696 | 32062 ft | 393 kts | 242° |
| 2026-04-10 15:43 | 35.78934 | 113.74954 | 32057 ft | 395 kts | 242° |
| 2026-04-10 15:43 | 35.76048 | 113.69222 | 32079 ft | 393 kts | 242° |
| 2026-04-10 15:44 | 35.73172 | 113.63509 | 32104 ft | 393 kts | 242° |
| 2026-04-10 15:44 | 35.70295 | 113.57800 | 32131 ft | 395 kts | 242° |
| 2026-04-10 15:45 | 35.67412 | 113.52092 | 32149 ft | 395 kts | 242° |
| 2026-04-10 15:45 | 35.64507 | 113.46353 | 32155 ft | 393 kts | 242° |
| 2026-04-10 15:46 | 35.61622 | 113.40662 | 32147 ft | 394 kts | 242° |
| 2026-04-10 15:46 | 35.58764 | 113.34949 | 32142 ft | 394 kts | 242° |
| 2026-04-10 15:47 | 35.55936 | 113.29186 | 32141 ft | 393 kts | 242° |
| 2026-04-10 15:47 | 35.53106 | 113.23422 | 32127 ft | 394 kts | 242° |
| 2026-04-10 15:48 | 35.50276 | 113.17680 | 32125 ft | 395 kts | 241° |
| 2026-04-10 15:48 | 35.47428 | 113.11923 | 32105 ft | 394 kts | 241° |
| 2026-04-10 15:49 | 35.44574 | 113.06162 | 32094 ft | 397 kts | 241° |
| 2026-04-10 15:49 | 35.41710 | 113.00394 | 32081 ft | 395 kts | 241° |
| 2026-04-10 15:50 | 35.38863 | 112.94671 | 32079 ft | 398 kts | 241° |
| 2026-04-10 15:50 | 35.35976 | 112.88871 | 32082 ft | 398 kts | 241° |
| 2026-04-10 15:51 | 35.33086 | 112.83081 | 32095 ft | 399 kts | 241° |
| 2026-04-10 15:51 | 35.30191 | 112.77289 | 32103 ft | 398 kts | 241° |
| 2026-04-10 15:52 | 35.27307 | 112.71524 | 32102 ft | 399 kts | 241° |
| 2026-04-10 15:52 | 35.24402 | 112.65728 | 32103 ft | 401 kts | 241° |
| 2026-04-10 15:53 | 35.21482 | 112.59914 | 32094 ft | 402 kts | 241° |
| 2026-04-10 15:53 | 35.18577 | 112.54118 | 32079 ft | 401 kts | 241° |
| 2026-04-10 15:54 | 35.15697 | 112.48303 | 32081 ft | 403 kts | 241° |
| 2026-04-10 15:54 | 35.12806 | 112.42465 | 32067 ft | 401 kts | 241° |
| 2026-04-10 15:55 | 35.09914 | 112.36643 | 32059 ft | 402 kts | 241° |
| 2026-04-10 15:55 | 35.06994 | 112.30778 | 32051 ft | 404 kts | 240° |
| 2026-04-10 15:56 | 35.04075 | 112.24932 | 32052 ft | 403 kts | 240° |
| 2026-04-10 15:56 | 35.01162 | 112.19108 | 32058 ft | 405 kts | 240° |
| 2026-04-10 15:57 | 34.98237 | 112.13268 | 32062 ft | 402 kts | 240° |
| 2026-04-10 15:57 | 34.95324 | 112.07453 | 32064 ft | 406 kts | 240° |
| 2026-04-10 15:58 | 34.92371 | 112.01570 | 32068 ft | 405 kts | 240° |
| 2026-04-10 15:58 | 34.89443 | 111.95747 | 32064 ft | 404 kts | 240° |
| 2026-04-10 15:59 | 34.86485 | 111.89867 | 32061 ft | 406 kts | 240° |
| 2026-04-10 15:59 | 34.83576 | 111.84030 | 32059 ft | 404 kts | 241° |
| 2026-04-10 16:00 | 34.80681 | 111.78204 | 32060 ft | 405 kts | 241° |
| 2026-04-10 16:00 | 34.77758 | 111.72333 | 32057 ft | 405 kts | 241° |
| 2026-04-10 16:01 | 34.74853 | 111.66514 | 32061 ft | 405 kts | 241° |
| 2026-04-10 16:01 | 34.71929 | 111.60668 | 32064 ft | 404 kts | 241° |
| 2026-04-10 16:02 | 34.69001 | 111.54826 | 32067 ft | 406 kts | 241° |
| 2026-04-10 16:02 | 34.66063 | 111.48974 | 32066 ft | 405 kts | 240° |
| 2026-04-10 16:03 | 34.63158 | 111.43197 | 32073 ft | 404 kts | 240° |
| 2026-04-10 16:03 | 34.60225 | 111.37372 | 32080 ft | 406 kts | 240° |
| 2026-04-10 16:04 | 34.57274 | 111.31522 | 32098 ft | 406 kts | 240° |
| 2026-04-10 16:04 | 34.54332 | 111.25697 | 32115 ft | 405 kts | 240° |
| 2026-04-10 16:05 | 34.51385 | 111.19872 | 32124 ft | 406 kts | 240° |
| 2026-04-10 16:05 | 34.48447 | 111.14081 | 32107 ft | 405 kts | 240° |
| 2026-04-10 16:06 | 34.45483 | 111.08251 | 32102 ft | 406 kts | 240° |
| 2026-04-10 16:06 | 34.42520 | 111.02425 | 32090 ft | 406 kts | 240° |
| 2026-04-10 16:07 | 34.39597 | 110.96604 | 32095 ft | 406 kts | 240° |
| 2026-04-10 16:07 | 34.36675 | 110.90746 | 32096 ft | 407 kts | 240° |
| 2026-04-10 16:08 | 34.33757 | 110.84912 | 32097 ft | 406 kts | 240° |
| 2026-04-10 16:08 | 34.30851 | 110.79111 | 32095 ft | 406 kts | 240° |
| 2026-04-10 16:09 | 34.27920 | 110.73272 | 32101 ft | 405 kts | 240° |
| 2026-04-10 16:09 | 34.24994 | 110.67459 | 32109 ft | 404 kts | 240° |
| 2026-04-10 16:10 | 34.22075 | 110.61671 | 32108 ft | 406 kts | 240° |
| 2026-04-10 16:10 | 34.19144 | 110.55868 | 32111 ft | 406 kts | 240° |
| 2026-04-10 16:11 | 34.16202 | 110.50054 | 32111 ft | 407 kts | 239° |
| 2026-04-10 16:11 | 34.13248 | 110.44222 | 32111 ft | 406 kts | 239° |
| 2026-04-10 16:12 | 34.10325 | 110.38410 | 32108 ft | 407 kts | 240° |
| 2026-04-10 16:13 | 34.05920 | 110.29635 | 32109 ft | 407 kts | 239° |
| 2026-04-10 16:13 | 34.02983 | 110.23798 | 32112 ft | 408 kts | 239° |
| 2026-04-10 16:14 | 34.00056 | 110.17995 | 32104 ft | 408 kts | 239° |
| 2026-04-10 16:14 | 33.97110 | 110.12166 | 32097 ft | 408 kts | 239° |
| 2026-04-10 16:15 | 33.94146 | 110.06313 | 32097 ft | 409 kts | 239° |
| 2026-04-10 16:15 | 33.91197 | 110.00497 | 32099 ft | 407 kts | 239° |
| 2026-04-10 16:16 | 33.88409 | 109.94547 | 32096 ft | 408 kts | 245° |
| 2026-04-10 16:16 | 33.86442 | 109.88165 | 32104 ft | 411 kts | 252° |
| 2026-04-10 16:17 | 33.84934 | 109.81562 | 32099 ft | 407 kts | 255° |
| 2026-04-10 16:17 | 33.83526 | 109.74960 | 32089 ft | 409 kts | 255° |
| 2026-04-10 16:18 | 33.82095 | 109.68310 | 32103 ft | 411 kts | 254° |
| 2026-04-10 16:18 | 33.80609 | 109.61744 | 32103 ft | 408 kts | 252° |
| 2026-04-10 16:19 | 33.78058 | 109.55670 | 32122 ft | 408 kts | 232° |
| 2026-04-10 16:19 | 33.73915 | 109.51009 | 32138 ft | 412 kts | 218° |
| 2026-04-10 16:20 | 33.69093 | 109.47295 | 32108 ft | 411 kts | 213° |
| 2026-04-10 16:20 | 33.64166 | 109.43878 | 32102 ft | 411 kts | 212° |
| 2026-04-10 16:21 | 33.59198 | 109.40449 | 32098 ft | 412 kts | 212° |
| 2026-04-10 16:21 | 33.54272 | 109.37022 | 32092 ft | 408 kts | 212° |
| 2026-04-10 16:22 | 33.49330 | 109.33562 | 32102 ft | 410 kts | 212° |
| 2026-04-10 16:22 | 33.44409 | 109.30106 | 32113 ft | 410 kts | 212° |
| 2026-04-10 16:23 | 33.39478 | 109.26645 | 32118 ft | 410 kts | 212° |
| 2026-04-10 16:23 | 33.34600 | 109.23225 | 32123 ft | 407 kts | 212° |
| 2026-04-10 16:24 | 33.29709 | 109.19801 | 32106 ft | 408 kts | 212° |
| 2026-04-10 16:24 | 33.24788 | 109.16357 | 32107 ft | 408 kts | 212° |
| 2026-04-10 16:25 | 33.19894 | 109.12942 | 32080 ft | 408 kts | 212° |
| 2026-04-10 16:25 | 33.15017 | 109.09541 | 32069 ft | 404 kts | 212° |
| 2026-04-10 16:26 | 33.10120 | 109.06130 | 32073 ft | 408 kts | 212° |
| 2026-04-10 16:26 | 33.05242 | 109.02737 | 32061 ft | 407 kts | 212° |
| 2026-04-10 16:27 | 33.00329 | 108.99329 | 32069 ft | 406 kts | 212° |
| 2026-04-10 16:27 | 32.95425 | 108.95931 | 32054 ft | 408 kts | 212° |
| 2026-04-10 16:28 | 32.90550 | 108.92556 | 32053 ft | 406 kts | 212° |
| 2026-04-10 16:28 | 32.85636 | 108.89156 | 32036 ft | 407 kts | 212° |
| 2026-04-10 16:29 | 32.80761 | 108.85787 | 32015 ft | 405 kts | 212° |
| 2026-04-10 16:29 | 32.75874 | 108.82416 | 32001 ft | 404 kts | 212° |
| 2026-04-10 16:30 | 32.71047 | 108.79092 | 32015 ft | 404 kts | 212° |
| 2026-04-10 16:30 | 32.66166 | 108.75730 | 32020 ft | 402 kts | 213° |
| 2026-04-10 16:31 | 32.61342 | 108.72413 | 32024 ft | 404 kts | 213° |
| 2026-04-10 16:31 | 32.56486 | 108.69079 | 32032 ft | 403 kts | 213° |
| 2026-04-10 16:32 | 32.51622 | 108.65744 | 32030 ft | 403 kts | 213° |
| 2026-04-10 16:32 | 32.46847 | 108.62319 | 32042 ft | 401 kts | 218° |
| 2026-04-10 16:33 | 32.42945 | 108.57677 | 32048 ft | 398 kts | 236° |
| 2026-04-10 16:33 | 32.40391 | 108.51922 | 32069 ft | 398 kts | 248° |
| 2026-04-10 16:34 | 32.38786 | 108.45689 | 32084 ft | 400 kts | 254° |
| 2026-04-10 16:34 | 32.37452 | 108.39302 | 32086 ft | 399 kts | 255° |
| 2026-04-10 16:35 | 32.36119 | 108.32953 | 32064 ft | 398 kts | 254° |
| 2026-04-10 16:35 | 32.34744 | 108.26612 | 32046 ft | 399 kts | 253° |
| 2026-04-10 16:36 | 32.33268 | 108.20309 | 32037 ft | 397 kts | 252° |
| 2026-04-10 16:36 | 32.31644 | 108.14040 | 32026 ft | 400 kts | 252° |
| 2026-04-10 16:37 | 32.30010 | 108.07783 | 32031 ft | 399 kts | 252° |
| 2026-04-10 16:37 | 32.28393 | 108.01551 | 32030 ft | 400 kts | 252° |
| 2026-04-10 16:38 | 32.26769 | 107.95270 | 32023 ft | 400 kts | 252° |
| 2026-04-10 16:38 | 32.25152 | 107.89022 | 32018 ft | 398 kts | 252° |
| 2026-04-10 16:39 | 32.23541 | 107.82805 | 32008 ft | 396 kts | 252° |
| 2026-04-10 16:39 | 32.21927 | 107.76585 | 32017 ft | 398 kts | 252° |
| 2026-04-10 16:40 | 32.20244 | 107.70393 | 31999 ft | 397 kts | 249° |
| 2026-04-10 16:40 | 32.17477 | 107.64795 | 32017 ft | 398 kts | 231° |
| 2026-04-10 16:41 | 32.13343 | 107.60407 | 32021 ft | 402 kts | 221° |
| 2026-04-10 16:41 | 32.08881 | 107.56451 | 32009 ft | 402 kts | 220° |
| 2026-04-10 16:42 | 32.04360 | 107.52525 | 32012 ft | 402 kts | 220° |
| 2026-04-10 16:42 | 31.99874 | 107.48605 | 31993 ft | 402 kts | 220° |
| 2026-04-10 16:43 | 31.95408 | 107.44682 | 31995 ft | 399 kts | 220° |
| 2026-04-10 16:43 | 31.90951 | 107.40757 | 31998 ft | 400 kts | 220° |
| 2026-04-10 16:44 | 31.86492 | 107.36829 | 31991 ft | 398 kts | 221° |
| 2026-04-10 16:44 | 31.82037 | 107.32913 | 31980 ft | 400 kts | 220° |
| 2026-04-10 16:45 | 31.77391 | 107.29282 | 31970 ft | 403 kts | 212° |
| 2026-04-10 16:45 | 31.72313 | 107.26444 | 31955 ft | 406 kts | 208° |
| 2026-04-10 16:46 | 31.67132 | 107.23849 | 31947 ft | 404 kts | 207° |
| 2026-04-10 16:46 | 31.61961 | 107.21252 | 31959 ft | 406 kts | 208° |
| 2026-04-10 16:47 | 31.56769 | 107.18607 | 31958 ft | 403 kts | 208° |
| 2026-04-10 16:47 | 31.51625 | 107.15968 | 31964 ft | 404 kts | 208° |
| 2026-04-10 16:48 | 31.46494 | 107.13334 | 31958 ft | 404 kts | 208° |
| 2026-04-10 16:48 | 31.41360 | 107.10698 | 31952 ft | 401 kts | 209° |
| 2026-04-10 16:49 | 31.36229 | 107.08064 | 31945 ft | 402 kts | 208° |
| 2026-04-10 16:49 | 31.31081 | 107.05424 | 31943 ft | 404 kts | 208° |
| 2026-04-10 16:50 | 31.25967 | 107.02808 | 31944 ft | 402 kts | 208° |
| 2026-04-10 16:50 | 31.20824 | 107.00179 | 31943 ft | 402 kts | 208° |
| 2026-04-10 16:51 | 31.15687 | 106.97555 | 31938 ft | 402 kts | 208° |
| 2026-04-10 16:51 | 31.10594 | 106.94955 | 31928 ft | 402 kts | 208° |
| 2026-04-10 16:52 | 31.05473 | 106.92344 | 31918 ft | 401 kts | 208° |
| 2026-04-10 16:52 | 31.00349 | 106.89737 | 31921 ft | 399 kts | 208° |
| 2026-04-10 16:53 | 30.95265 | 106.87154 | 31914 ft | 400 kts | 209° |
| 2026-04-10 16:53 | 30.90139 | 106.84550 | 31907 ft | 401 kts | 209° |
| 2026-04-10 16:54 | 30.85029 | 106.81959 | 31905 ft | 398 kts | 209° |
| 2026-04-10 16:54 | 30.79948 | 106.79385 | 31896 ft | 398 kts | 209° |
| 2026-04-10 16:55 | 30.74870 | 106.76816 | 31897 ft | 399 kts | 209° |
| 2026-04-10 16:55 | 30.69792 | 106.74249 | 31899 ft | 400 kts | 209° |
| 2026-04-10 16:56 | 30.64674 | 106.71662 | 31896 ft | 398 kts | 209° |
| 2026-04-10 16:56 | 30.59566 | 106.69165 | 31896 ft | 401 kts | 206° |
| 2026-04-10 16:57 | 30.54220 | 106.67152 | 31896 ft | 403 kts | 203° |
| 2026-04-10 16:57 | 30.48827 | 106.65324 | 31893 ft | 403 kts | 202° |
| 2026-04-10 16:58 | 30.43464 | 106.63490 | 31898 ft | 402 kts | 203° |
| 2026-04-10 16:58 | 30.38092 | 106.61617 | 31897 ft | 403 kts | 204° |
| 2026-04-10 16:59 | 30.32746 | 106.59735 | 31895 ft | 401 kts | 204° |
| 2026-04-10 16:59 | 30.27392 | 106.57843 | 31899 ft | 401 kts | 204° |
| 2026-04-10 17:00 | 30.22032 | 106.55947 | 31895 ft | 402 kts | 204° |
| 2026-04-10 17:00 | 30.16629 | 106.54284 | 31896 ft | 408 kts | 198° |
| 2026-04-10 17:01 | 30.10927 | 106.53706 | 31890 ft | 414 kts | 189° |
| 2026-04-10 17:01 | 30.05111 | 106.53709 | 31899 ft | 418 kts | 187° |
| 2026-04-10 17:02 | 29.99316 | 106.53801 | 31898 ft | 416 kts | 187° |
| 2026-04-10 17:02 | 29.93494 | 106.53861 | 31902 ft | 416 kts | 188° |
| 2026-04-10 17:03 | 29.87638 | 106.53886 | 31903 ft | 417 kts | 188° |
| 2026-04-10 17:03 | 29.81842 | 106.53899 | 31902 ft | 416 kts | 188° |
| 2026-04-10 17:04 | 29.76047 | 106.53911 | 31895 ft | 416 kts | 188° |
| 2026-04-10 17:04 | 29.70215 | 106.53915 | 31903 ft | 418 kts | 188° |
| 2026-04-10 17:05 | 29.64417 | 106.53921 | 31890 ft | 416 kts | 188° |
| 2026-04-10 17:05 | 29.58633 | 106.53927 | 31880 ft | 418 kts | 188° |
| 2026-04-10 17:06 | 29.52798 | 106.53931 | 31882 ft | 418 kts | 188° |
| 2026-04-10 17:06 | 29.46954 | 106.53938 | 31877 ft | 420 kts | 188° |
| 2026-04-10 17:07 | 29.41129 | 106.53949 | 31878 ft | 417 kts | 188° |
| 2026-04-10 17:07 | 29.35280 | 106.53956 | 31877 ft | 421 kts | 188° |
| 2026-04-10 17:08 | 29.29446 | 106.53960 | 31878 ft | 417 kts | 188° |
| 2026-04-10 17:08 | 29.23636 | 106.53969 | 31878 ft | 418 kts | 188° |
| 2026-04-10 17:09 | 29.17777 | 106.53975 | 31887 ft | 419 kts | 188° |
| 2026-04-10 17:09 | 29.11931 | 106.53980 | 31890 ft | 421 kts | 188° |
| 2026-04-10 17:10 | 29.06107 | 106.53989 | 31893 ft | 419 kts | 188° |
| 2026-04-10 17:10 | 29.00248 | 106.53996 | 31883 ft | 421 kts | 188° |
| 2026-04-10 17:11 | 28.94372 | 106.54000 | 31906 ft | 423 kts | 188° |
| 2026-04-10 17:11 | 28.88471 | 106.54008 | 31924 ft | 422 kts | 188° |
| 2026-04-10 17:12 | 28.82603 | 106.54015 | 31938 ft | 422 kts | 188° |
| 2026-04-10 17:12 | 28.76737 | 106.54020 | 31942 ft | 423 kts | 188° |
| 2026-04-10 17:13 | 28.70847 | 106.54026 | 31949 ft | 423 kts | 189° |
| 2026-04-10 17:13 | 28.64950 | 106.54030 | 31963 ft | 423 kts | 189° |
| 2026-04-10 17:14 | 28.59053 | 106.54036 | 31962 ft | 422 kts | 189° |
| 2026-04-10 17:14 | 28.53164 | 106.54041 | 31973 ft | 425 kts | 189° |
| 2026-04-10 17:15 | 28.47249 | 106.54050 | 31978 ft | 424 kts | 189° |
| 2026-04-10 17:15 | 28.41303 | 106.54057 | 31980 ft | 426 kts | 189° |
| 2026-04-10 17:16 | 28.35393 | 106.54060 | 31979 ft | 425 kts | 189° |
| 2026-04-10 17:16 | 28.29460 | 106.54064 | 31979 ft | 427 kts | 189° |
| 2026-04-10 17:17 | 28.23464 | 106.54057 | 31974 ft | 427 kts | 190° |
| 2026-04-10 17:17 | 28.17710 | 106.53178 | 31980 ft | 410 kts | 207° |
| 2026-04-10 17:17 | 28.15134 | 106.51927 | 31980 ft | 397 kts | 216° |
| 2026-04-10 17:18 | 28.12834 | 106.50269 | 31974 ft | 389 kts | 223° |
| 2026-04-10 17:18 | 28.08877 | 106.46160 | 31973 ft | 381 kts | 236° |
| 2026-04-10 17:19 | 28.06259 | 106.41049 | 31978 ft | 375 kts | 249° |
| 2026-04-10 17:19 | 28.04374 | 106.35603 | 31975 ft | 373 kts | 252° |
| 2026-04-10 17:20 | 28.02570 | 106.30038 | 31973 ft | 375 kts | 252° |
| 2026-04-10 17:20 | 28.00764 | 106.24526 | 31970 ft | 373 kts | 251° |
| 2026-04-10 17:21 | 27.98024 | 106.16299 | 31959 ft | 374 kts | 251° |
| 2026-04-10 17:21 | 27.96204 | 106.10854 | 31950 ft | 373 kts | 251° |
| 2026-04-10 17:22 | 27.94388 | 106.05348 | 31948 ft | 374 kts | 251° |
| 2026-04-10 17:22 | 27.92579 | 105.99832 | 31954 ft | 373 kts | 251° |
| 2026-04-10 17:23 | 27.90780 | 105.94373 | 31954 ft | 374 kts | 251° |
| 2026-04-10 17:23 | 27.88950 | 105.88831 | 31956 ft | 374 kts | 251° |
| 2026-04-10 17:24 | 27.87134 | 105.83347 | 31962 ft | 374 kts | 251° |
| 2026-04-10 17:24 | 27.85314 | 105.77850 | 31967 ft | 374 kts | 251° |
| 2026-04-10 17:25 | 27.83500 | 105.72392 | 31975 ft | 375 kts | 251° |
| 2026-04-10 17:25 | 27.81677 | 105.66903 | 31973 ft | 373 kts | 251° |
| 2026-04-10 17:26 | 27.79832 | 105.61369 | 31970 ft | 376 kts | 251° |
| 2026-04-10 17:26 | 27.77997 | 105.55876 | 31975 ft | 373 kts | 251° |
| 2026-04-10 17:27 | 27.76163 | 105.50386 | 31971 ft | 374 kts | 251° |
| 2026-04-10 17:27 | 27.74325 | 105.44894 | 31974 ft | 375 kts | 251° |
| 2026-04-10 17:28 | 27.72493 | 105.39428 | 31988 ft | 371 kts | 251° |
| 2026-04-10 17:28 | 27.70674 | 105.34018 | 32000 ft | 372 kts | 251° |
| 2026-04-10 17:29 | 27.68824 | 105.28502 | 32000 ft | 373 kts | 250° |
| 2026-04-10 17:29 | 27.67001 | 105.23090 | 32008 ft | 372 kts | 250° |
| 2026-04-10 17:30 | 27.65149 | 105.17596 | 32036 ft | 373 kts | 251° |
| 2026-04-10 17:30 | 27.63098 | 105.12246 | 32043 ft | 377 kts | 244° |
| 2026-04-10 17:31 | 27.59864 | 105.07554 | 32062 ft | 382 kts | 231° |
| 2026-04-10 17:31 | 27.56033 | 105.03359 | 32066 ft | 383 kts | 229° |
| 2026-04-10 17:32 | 27.52158 | 104.99250 | 32077 ft | 384 kts | 229° |
| 2026-04-10 17:32 | 27.48297 | 104.95101 | 32080 ft | 383 kts | 229° |
| 2026-04-10 17:33 | 27.44461 | 104.90944 | 32071 ft | 381 kts | 229° |
| 2026-04-10 17:33 | 27.40661 | 104.86822 | 32084 ft | 384 kts | 230° |
| 2026-04-10 17:34 | 27.36812 | 104.82640 | 32071 ft | 383 kts | 229° |
| 2026-04-10 17:34 | 27.32987 | 104.78490 | 32083 ft | 383 kts | 230° |
| 2026-04-10 17:35 | 27.29156 | 104.74339 | 32097 ft | 381 kts | 230° |
| 2026-04-10 17:35 | 27.25318 | 104.70181 | 32096 ft | 383 kts | 229° |
| 2026-04-10 17:36 | 27.21504 | 104.66062 | 32107 ft | 381 kts | 229° |
| 2026-04-10 17:36 | 27.17678 | 104.61962 | 32124 ft | 381 kts | 229° |
| 2026-04-10 17:37 | 27.13815 | 104.57842 | 32142 ft | 382 kts | 229° |
| 2026-04-10 17:37 | 27.09968 | 104.53734 | 32159 ft | 384 kts | 230° |
| 2026-04-10 17:38 | 27.06095 | 104.49595 | 32167 ft | 384 kts | 229° |
| 2026-04-10 17:38 | 27.02251 | 104.45497 | 32173 ft | 382 kts | 230° |
| 2026-04-10 17:39 | 26.98367 | 104.41355 | 32168 ft | 383 kts | 229° |
| 2026-04-10 17:39 | 26.94542 | 104.37282 | 32183 ft | 383 kts | 229° |
| 2026-04-10 17:40 | 26.90649 | 104.33144 | 32203 ft | 383 kts | 229° |
| 2026-04-10 17:40 | 26.86780 | 104.29033 | 32211 ft | 381 kts | 229° |
| 2026-04-10 17:41 | 26.82806 | 104.25037 | 32207 ft | 386 kts | 226° |
| 2026-04-10 17:41 | 26.78659 | 104.21208 | 32207 ft | 390 kts | 226° |
| 2026-04-10 17:42 | 26.74479 | 104.17370 | 32206 ft | 387 kts | 226° |
| 2026-04-10 17:42 | 26.70345 | 104.13543 | 32205 ft | 388 kts | 226° |
| 2026-04-10 17:43 | 26.66207 | 104.09693 | 32194 ft | 387 kts | 226° |
| 2026-04-10 17:43 | 26.62065 | 104.05833 | 32196 ft | 386 kts | 226° |
| 2026-04-10 17:44 | 26.57934 | 104.01981 | 32185 ft | 389 kts | 226° |
| 2026-04-10 17:44 | 26.53787 | 103.98123 | 32194 ft | 388 kts | 226° |
| 2026-04-10 17:45 | 26.49631 | 103.94260 | 32186 ft | 388 kts | 226° |
| 2026-04-10 17:45 | 26.45478 | 103.90403 | 32195 ft | 389 kts | 226° |
| 2026-04-10 17:46 | 26.41300 | 103.86523 | 32191 ft | 392 kts | 227° |
| 2026-04-10 17:46 | 26.37106 | 103.82645 | 32203 ft | 389 kts | 227° |
| 2026-04-10 17:47 | 26.32948 | 103.78795 | 32212 ft | 391 kts | 226° |
| 2026-04-10 17:47 | 26.28748 | 103.74901 | 32223 ft | 393 kts | 226° |
| 2026-04-10 17:48 | 26.24591 | 103.71062 | 32227 ft | 386 kts | 226° |
| 2026-04-10 17:48 | 26.20425 | 103.67215 | 32234 ft | 390 kts | 227° |
| 2026-04-10 17:49 | 26.16231 | 103.63331 | 32235 ft | 393 kts | 226° |
| 2026-04-10 17:49 | 26.12076 | 103.59438 | 32238 ft | 391 kts | 227° |
| 2026-04-10 17:50 | 26.08264 | 103.55846 | 32248 ft | 391 kts | 227° |
| 2026-04-10 18:53 | 26.06675 | 103.54354 | 32254 ft | 390 kts | 227° |
| 2026-04-10 18:53 | 26.02532 | 103.50464 | 32264 ft | 393 kts | 227° |
| 2026-04-10 18:54 | 25.98372 | 103.46564 | 32256 ft | 391 kts | 227° |
| 2026-04-10 18:54 | 25.94200 | 103.42673 | 32261 ft | 391 kts | 227° |
| 2026-04-10 18:55 | 25.89459 | 103.39613 | 32042 ft | 398 kts | 209° |
| 2026-04-10 18:55 | 25.86795 | 103.38635 | 31508 ft | 400 kts | 206° |
| 2026-04-10 18:55 | 25.84117 | 103.37788 | 30899 ft | 400 kts | 205° |
| 2026-04-10 18:55 | 25.81436 | 103.36967 | 30210 ft | 402 kts | 205° |
| 2026-04-10 18:56 | 25.78759 | 103.36123 | 29620 ft | 399 kts | 206° |
| 2026-04-10 18:56 | 25.76126 | 103.35262 | 29348 ft | 388 kts | 207° |
| 2026-04-10 18:56 | 25.73545 | 103.34396 | 28733 ft | 388 kts | 207° |
| 2026-04-10 18:56 | 25.70995 | 103.33516 | 28411 ft | 379 kts | 207° |
| 2026-04-10 18:57 | 25.68492 | 103.32642 | 27898 ft | 377 kts | 208° |
| 2026-04-10 18:57 | 25.65989 | 103.31753 | 27290 ft | 378 kts | 208° |
| 2026-04-10 18:57 | 25.63498 | 103.30865 | 26920 ft | 371 kts | 207° |
| 2026-04-10 18:57 | 25.61062 | 103.29999 | 26539 ft | 366 kts | 208° |
| 2026-04-10 18:58 | 25.58637 | 103.29132 | 26050 ft | 363 kts | 208° |
| 2026-04-10 18:58 | 25.56252 | 103.28283 | 25815 ft | 354 kts | 208° |
| 2026-04-10 18:58 | 25.53938 | 103.27465 | 25648 ft | 343 kts | 208° |
| 2026-04-10 18:58 | 25.51694 | 103.26674 | 25454 ft | 333 kts | 208° |
| 2026-04-10 18:59 | 25.49522 | 103.25879 | 25194 ft | 323 kts | 211° |
| 2026-04-10 18:59 | 25.47476 | 103.24915 | 24667 ft | 319 kts | 216° |
| 2026-04-10 18:59 | 25.45513 | 103.23794 | 23983 ft | 321 kts | 218° |
| 2026-04-10 18:59 | 25.43555 | 103.22597 | 23290 ft | 324 kts | 220° |
| 2026-04-10 19:00 | 25.41867 | 103.21039 | 22640 ft | 313 kts | 237° |
| 2026-04-10 19:00 | 25.40898 | 103.18968 | 22106 ft | 304 kts | 256° |
| 2026-04-10 19:00 | 25.40790 | 103.16640 | 21692 ft | 305 kts | 276° |
| 2026-04-10 19:00 | 25.41571 | 103.14449 | 21338 ft | 313 kts | 296° |
| 2026-04-10 19:01 | 25.43123 | 103.12708 | 20934 ft | 331 kts | 316° |
| 2026-04-10 19:01 | 25.45274 | 103.11655 | 20486 ft | 353 kts | 337° |
| 2026-04-10 19:01 | 25.47807 | 103.11493 | 20055 ft | 373 kts | 359° |
| 2026-04-10 19:01 | 25.50330 | 103.12305 | 19675 ft | 387 kts | 18° |
| 2026-04-10 19:02 | 25.52673 | 103.13807 | 19341 ft | 389 kts | 27° |
| 2026-04-10 19:02 | 25.54897 | 103.15511 | 18999 ft | 387 kts | 30° |
| 2026-04-10 19:02 | 25.57071 | 103.17245 | 18664 ft | 383 kts | 30° |
| 2026-04-10 19:02 | 25.59212 | 103.18957 | 18333 ft | 379 kts | 30° |
| 2026-04-10 19:03 | 25.61342 | 103.20644 | 17952 ft | 376 kts | 30° |
| 2026-04-10 19:03 | 25.63465 | 103.22306 | 17603 ft | 371 kts | 31° |
| 2026-04-10 19:03 | 25.65566 | 103.23927 | 17270 ft | 366 kts | 30° |
| 2026-04-10 19:03 | 25.67677 | 103.25546 | 16843 ft | 365 kts | 30° |
| 2026-04-10 19:04 | 25.69765 | 103.27149 | 16377 ft | 366 kts | 30° |
| 2026-04-10 19:04 | 25.71823 | 103.28735 | 15975 ft | 364 kts | 30° |
| 2026-04-10 19:04 | 25.73885 | 103.30325 | 15656 ft | 359 kts | 30° |
| 2026-04-10 19:04 | 25.75896 | 103.31948 | 15244 ft | 360 kts | 37° |
| 2026-04-10 19:05 | 25.77485 | 103.34095 | 14857 ft | 363 kts | 59° |
| 2026-04-10 19:05 | 25.78319 | 103.36717 | 14465 ft | 363 kts | 81° |
| 2026-04-10 19:05 | 25.78291 | 103.39510 | 14002 ft | 361 kts | 103° |
| 2026-04-10 19:05 | 25.77393 | 103.42053 | 13623 ft | 352 kts | 126° |
| 2026-04-10 19:06 | 25.75783 | 103.44022 | 13245 ft | 339 kts | 148° |
| 2026-04-10 19:06 | 25.73724 | 103.45164 | 12775 ft | 327 kts | 171° |
| 2026-04-10 19:06 | 25.71534 | 103.45345 | 12391 ft | 311 kts | 194° |
| 2026-04-10 19:06 | 25.69528 | 103.44595 | 12018 ft | 296 kts | 215° |
| 2026-04-10 19:07 | 25.67892 | 103.43287 | 11919 ft | 286 kts | 223° |
| 2026-04-10 19:07 | 25.66357 | 103.41866 | 11915 ft | 290 kts | 224° |
| 2026-04-10 19:07 | 25.64792 | 103.40442 | 11916 ft | 292 kts | 222° |
| 2026-04-10 19:07 | 25.63180 | 103.39049 | 11917 ft | 293 kts | 221° |
| 2026-04-10 19:08 | 25.61573 | 103.37702 | 11916 ft | 292 kts | 221° |
| 2026-04-10 19:08 | 25.59936 | 103.36349 | 11918 ft | 294 kts | 220° |
| 2026-04-10 19:08 | 25.58289 | 103.34991 | 11914 ft | 291 kts | 221° |
| 2026-04-10 19:08 | 25.56652 | 103.33642 | 11923 ft | 293 kts | 221° |
| 2026-04-10 19:09 | 25.55037 | 103.32306 | 11913 ft | 292 kts | 221° |
| 2026-04-10 19:09 | 25.53410 | 103.30960 | 11904 ft | 291 kts | 221° |
| 2026-04-10 19:09 | 25.51770 | 103.29604 | 11904 ft | 291 kts | 221° |
| 2026-04-10 19:09 | 25.50157 | 103.28270 | 11904 ft | 291 kts | 221° |
| 2026-04-10 19:10 | 25.48560 | 103.26955 | 11899 ft | 278 kts | 221° |
| 2026-04-10 19:10 | 25.47039 | 103.25705 | 11899 ft | 263 kts | 221° |
| 2026-04-10 19:10 | 25.45602 | 103.24522 | 11898 ft | 249 kts | 221° |
| 2026-04-10 19:10 | 25.44220 | 103.23377 | 11647 ft | 246 kts | 222° |
| 2026-04-10 19:11 | 25.42846 | 103.22255 | 11368 ft | 245 kts | 220° |
| 2026-04-10 19:11 | 25.41449 | 103.21177 | 11089 ft | 243 kts | 220° |
| 2026-04-10 19:11 | 25.40087 | 103.20079 | 10818 ft | 240 kts | 221° |
| 2026-04-10 19:11 | 25.38769 | 103.18956 | 10556 ft | 238 kts | 223° |
| 2026-04-10 19:12 | 25.37479 | 103.17831 | 10295 ft | 235 kts | 223° |
| 2026-04-10 19:12 | 25.36222 | 103.16733 | 10145 ft | 228 kts | 222° |
| 2026-04-10 19:12 | 25.34990 | 103.15661 | 10091 ft | 222 kts | 222° |
| 2026-04-10 19:12 | 25.33764 | 103.14592 | 10037 ft | 225 kts | 223° |
| 2026-04-10 19:13 | 25.32525 | 103.13512 | 9954 ft | 225 kts | 223° |
| 2026-04-10 19:13 | 25.31298 | 103.12444 | 9932 ft | 222 kts | 222° |
| 2026-04-10 19:13 | 25.30060 | 103.11367 | 9930 ft | 224 kts | 222° |
| 2026-04-10 19:13 | 25.28785 | 103.10259 | 9927 ft | 224 kts | 222° |
| 2026-04-10 19:14 | 25.27544 | 103.09181 | 9922 ft | 223 kts | 222° |
| 2026-04-10 19:14 | 25.26257 | 103.08062 | 9920 ft | 225 kts | 222° |
| 2026-04-10 19:14 | 25.24955 | 103.06931 | 9919 ft | 224 kts | 222° |
| 2026-04-10 19:14 | 25.23737 | 103.05874 | 9843 ft | 219 kts | 222° |
| 2026-04-10 19:15 | 25.22540 | 103.04834 | 9505 ft | 219 kts | 222° |
| 2026-04-10 19:15 | 25.21352 | 103.03803 | 9210 ft | 211 kts | 221° |
| 2026-04-10 19:15 | 25.20224 | 103.02827 | 8942 ft | 201 kts | 221° |
| 2026-04-10 19:15 | 25.19140 | 103.01886 | 8696 ft | 194 kts | 221° |
| 2026-04-10 19:16 | 25.18117 | 103.01000 | 8435 ft | 181 kts | 220° |
| 2026-04-10 19:16 | 25.17159 | 103.00169 | 8209 ft | 167 kts | 220° |
| 2026-04-10 19:16 | 25.16291 | 102.99417 | 8029 ft | 155 kts | 220° |
| 2026-04-10 19:16 | 25.15431 | 102.98669 | 7812 ft | 157 kts | 220° |
| 2026-04-10 19:17 | 25.13694 | 102.97166 | 7404 ft | 159 kts | 219° |
| 2026-04-10 19:17 | 25.12817 | 102.96416 | 7189 ft | 160 kts | 218° |
| 2026-04-10 19:17 | 25.11935 | 102.95657 | 6989 ft | 160 kts | 219° |
| 2026-04-10 19:18 | 25.11079 | 102.94913 | 6913 ft | 142 kts | 219° |
| 2026-04-10 19:18 | 25.10480 | 102.94386 | 6913 ft | 79 kts | 219° |
| 2026-04-10 19:18 | 25.10158 | 102.94104 | 6913 ft | 42 kts | 220° |
| 2026-04-10 19:18 | 25.10030 | 102.93919 | 6913 ft | 18 kts | 244° |
| 2026-04-10 19:19 | 25.09996 | 102.93824 | 6913 ft | 10 kts | 270° |
| 2026-04-10 19:19 | 25.10043 | 102.93778 | 6913 ft | 8 kts | 0° |
| 2026-04-10 19:19 | 25.10094 | 102.93810 | 6913 ft | 9 kts | 38° |
| 2026-04-10 19:19 | 25.10166 | 102.93873 | 6913 ft | 16 kts | 37° |
| 2026-04-10 19:20 | 25.10273 | 102.93966 | 6913 ft | 23 kts | 38° |
| 2026-04-10 19:20 | 25.10378 | 102.94058 | 6913 ft | 11 kts | 38° |
| 2026-04-10 19:20 | 25.10446 | 102.94057 | 6913 ft | 10 kts | 315° |
| 2026-04-10 19:20 | 25.10501 | 102.93981 | 6913 ft | 15 kts | 308° |
| 2026-04-10 19:21 | 25.10577 | 102.93876 | 6913 ft | 19 kts | 308° |
| 2026-04-10 19:21 | 25.10673 | 102.93742 | 6913 ft | 24 kts | 308° |
| 2026-04-10 19:21 | 25.10788 | 102.93584 | 6913 ft | 26 kts | 308° |
| 2026-04-10 19:21 | 25.10904 | 102.93423 | 6913 ft | 26 kts | 308° |
| 2026-04-10 19:22 | 25.11025 | 102.93256 | 6913 ft | 26 kts | 308° |
| 2026-04-10 19:22 | 25.11128 | 102.93112 | 6913 ft | 19 kts | 308° |
| 2026-04-10 19:22 | 25.11211 | 102.92999 | 6913 ft | 10 kts | 308° |
| 2026-04-10 19:22 | 25.11210 | 102.92924 | 6913 ft | 11 kts | 226° |
| 2026-04-10 19:23 | 25.11134 | 102.92857 | 6913 ft | 16 kts | 218° |
| 2026-04-10 19:23 | 25.11031 | 102.92767 | 6913 ft | 21 kts | 218° |
| 2026-04-10 19:23 | 25.10903 | 102.92656 | 6913 ft | 25 kts | 218° |
| 2026-04-10 19:23 | 25.10755 | 102.92527 | 6913 ft | 28 kts | 218° |
| 2026-04-10 19:24 | 25.10610 | 102.92401 | 6913 ft | 23 kts | 218° |
| 2026-04-10 19:24 | 25.10476 | 102.92284 | 6913 ft | 23 kts | 218° |
| 2026-04-10 19:24 | 25.10348 | 102.92173 | 6913 ft | 20 kts | 218° |
| 2026-04-10 19:24 | 25.10264 | 102.92114 | 6913 ft | 9 kts | 178° |
| 2026-04-10 19:25 | 25.10203 | 102.92172 | 6913 ft | 14 kts | 128° |
| 2026-04-10 19:25 | 25.10137 | 102.92264 | 6913 ft | 10 kts | 128° |
| 2026-04-10 19:25 | 25.10138 | 102.92324 | 6913 ft | 7 kts | 44° |
| 2026-04-10 19:25 | 25.10166 | 102.92348 | 6913 ft | 1 kts | 38° |
| 2026-04-10 19:26 | 25.10167 | 102.92349 | 6913 ft | 0 kts | 38° |